Time;durP1;ratioP1;P1;durP2;ratioP2;P2;SDS_P1;SDS_P2;PMS_P1;PMS_P2;Temp;Humidity;BMP_temperature;BMP_pressure;BME280_temperature;BME280_humidity;BME280_pressure;Samples;Min_cycle;Max_cycle;Signal;HPM_P1;HPM_P2
2022/07/30 00:01:49;;;;;;;6.93;3.42;;;16.10;99.90;;;;;;5077068;28;20177;-76
2022/07/30 00:04:16;;;;;;;6.72;3.35;;;16.10;99.90;;;;;;5070583;28;20047;-73
2022/07/30 00:06:41;;;;;;;6.93;3.50;;;16.20;99.90;;;;;;5070117;28;20048;-74
2022/07/30 00:09:07;;;;;;;6.05;3.22;;;16.20;99.90;;;;;;5077023;28;20505;-73
2022/07/30 00:11:33;;;;;;;6.68;3.50;;;16.20;99.90;;;;;;5044411;28;20048;-73
2022/07/30 00:13:59;;;;;;;7.43;3.33;;;16.20;99.90;;;;;;5073964;28;20052;-74
2022/07/30 00:16:24;;;;;;;6.70;3.53;;;16.20;99.90;;;;;;5049297;28;20050;-73
2022/07/30 00:18:50;;;;;;;7.63;4.50;;;16.20;99.90;;;;;;5075831;28;20036;-73
2022/07/30 00:21:16;;;;;;;7.72;4.28;;;16.20;99.90;;;;;;5081041;28;20101;-73
2022/07/30 00:23:42;;;;;;;8.77;4.65;;;16.10;99.90;;;;;;5060248;28;20501;-72
2022/07/30 00:26:08;;;;;;;7.85;3.75;;;16.00;99.90;;;;;;5075860;28;20040;-73
2022/07/30 00:28:33;;;;;;;7.95;4.70;;;16.00;99.90;;;;;;5094580;28;20123;-72
2022/07/30 00:31:00;;;;;;;8.45;3.92;;;16.00;99.90;;;;;;5095064;28;20441;-73
2022/07/30 00:33:26;;;;;;;8.15;3.80;;;15.90;99.90;;;;;;5093755;28;20044;-72
2022/07/30 00:35:51;;;;;;;6.45;3.30;;;16.00;99.90;;;;;;5076638;28;20538;-73
2022/07/30 00:38:17;;;;;;;7.75;3.50;;;15.90;99.90;;;;;;5077010;28;20075;-73
2022/07/30 00:40:45;;;;;;;6.70;3.78;;;16.00;99.90;;;;;;5094573;28;20048;-73
2022/07/30 00:43:16;;;;;;;7.40;3.60;;;15.90;99.90;;;;;;5076217;28;20040;-73
2022/07/30 00:45:45;;;;;;;8.30;5.13;;;15.80;99.90;;;;;;5077200;28;20096;-74
2022/07/30 00:48:12;;;;;;;7.43;4.00;;;15.80;99.90;;;;;;5072392;28;20075;-74
2022/07/30 00:50:38;;;;;;;7.88;3.75;;;15.80;99.90;;;;;;5067703;28;20499;-72
2022/07/30 00:53:05;;;;;;;6.68;3.47;;;15.70;99.90;;;;;;5073085;28;20043;-73
2022/07/30 00:55:31;;;;;;;6.93;3.65;;;15.70;99.90;;;;;;5052313;28;20044;-73
2022/07/30 00:57:56;;;;;;;8.35;4.15;;;15.80;99.90;;;;;;5054774;28;20040;-73
2022/07/30 01:00:23;;;;;;;6.80;3.70;;;15.70;99.90;;;;;;5076555;28;20104;-72
2022/07/30 01:02:49;;;;;;;8.50;4.40;;;15.60;99.90;;;;;;5075468;28;20399;-72
2022/07/30 01:05:15;;;;;;;7.15;3.80;;;15.60;99.90;;;;;;5094506;28;20132;-73
2022/07/30 01:07:41;;;;;;;7.30;4.45;;;15.60;99.90;;;;;;5075679;28;20048;-73
2022/07/30 01:10:09;;;;;;;7.93;4.70;;;15.60;99.90;;;;;;5075883;28;20047;-73
2022/07/30 01:12:35;;;;;;;7.25;4.20;;;15.60;99.90;;;;;;5059668;28;20047;-72
2022/07/30 01:15:04;;;;;;;8.68;4.60;;;15.60;99.90;;;;;;5043166;28;20101;-72
2022/07/30 01:17:29;;;;;;;8.65;4.93;;;15.60;99.90;;;;;;5075378;28;20044;-73
2022/07/30 01:20:01;;;;;;;8.82;4.95;;;15.60;99.90;;;;;;5075935;28;20059;-74
2022/07/30 01:22:33;;;;;;;7.80;4.80;;;15.50;99.90;;;;;;5056244;28;20075;-74
2022/07/30 01:25:02;;;;;;;11.90;8.48;;;15.50;99.90;;;;;;5058774;28;20127;-73
2022/07/30 01:27:32;;;;;;;6.50;4.05;;;15.40;99.90;;;;;;5079672;28;20440;-73
2022/07/30 01:30:00;;;;;;;8.70;4.40;;;15.30;99.90;;;;;;5059441;28;20058;-73
2022/07/30 01:32:27;;;;;;;13.95;11.30;;;15.30;99.90;;;;;;5075142;28;20546;-73
2022/07/30 01:34:56;;;;;;;8.25;5.20;;;15.20;99.90;;;;;;5077174;28;20445;-75
2022/07/30 01:37:23;;;;;;;11.35;6.95;;;15.10;99.90;;;;;;5058920;28;20055;-73
2022/07/30 01:39:50;;;;;;;12.88;7.93;;;15.00;99.90;;;;;;5075465;28;20108;-73
2022/07/30 01:42:18;;;;;;;8.23;5.82;;;15.00;99.90;;;;;;5058988;28;20048;-74
2022/07/30 01:44:45;;;;;;;10.20;6.60;;;15.00;99.90;;;;;;5075174;28;20051;-74
2022/07/30 01:47:14;;;;;;;9.73;6.70;;;15.00;99.90;;;;;;5072660;28;20044;-73
2022/07/30 01:49:41;;;;;;;7.60;4.80;;;14.90;99.90;;;;;;5085386;28;20051;-73
2022/07/30 01:52:08;;;;;;;7.47;4.95;;;14.90;99.90;;;;;;5069032;28;20048;-73
2022/07/30 01:54:36;;;;;;;7.28;4.30;;;14.90;99.90;;;;;;5047428;28;20495;-73
2022/07/30 01:57:03;;;;;;;9.75;5.80;;;14.90;99.90;;;;;;5073710;28;20101;-73
2022/07/30 01:59:32;;;;;;;8.30;4.68;;;14.90;99.90;;;;;;5074704;28;20449;-73
2022/07/30 02:01:58;;;;;;;8.90;4.43;;;15.00;99.90;;;;;;5058836;28;20074;-73
2022/07/30 02:04:24;;;;;;;8.10;4.70;;;15.00;99.90;;;;;;5074736;28;20051;-74
2022/07/30 02:07:10;;;;;;;7.80;4.43;;;15.00;99.90;;;;;;5093226;28;20394;-74
2022/07/30 02:09:43;;;;;;;7.28;4.43;;;15.00;99.90;;;;;;5058441;28;20479;-73
2022/07/30 02:12:29;;;;;;;7.75;4.82;;;15.10;99.90;;;;;;5075473;28;20131;-73
2022/07/30 02:14:59;;;;;;;8.80;5.10;;;15.00;99.90;;;;;;5075356;28;20489;-73
2022/07/30 02:17:28;;;;;;;7.18;4.63;;;15.00;99.90;;;;;;5070825;28;20131;-73
2022/07/30 02:19:58;;;;;;;9.00;4.80;;;15.00;99.90;;;;;;5058572;28;20482;-73
2022/07/30 02:22:26;;;;;;;8.02;4.85;;;15.00;99.90;;;;;;5074915;28;20040;-73
2022/07/30 02:24:54;;;;;;;8.10;4.70;;;15.10;99.90;;;;;;5058738;28;20117;-73
2022/07/30 02:27:27;;;;;;;7.97;4.88;;;15.00;99.90;;;;;;5074528;28;20048;-74
2022/07/30 02:29:56;;;;;;;7.30;4.80;;;15.00;99.90;;;;;;5074932;28;20048;-74
2022/07/30 02:32:25;;;;;;;7.55;4.88;;;15.00;99.90;;;;;;5074228;28;20115;-75
2022/07/30 02:34:56;;;;;;;10.30;7.65;;;15.00;99.90;;;;;;5074835;28;20056;-74
2022/07/30 02:37:23;;;;;;;8.25;6.07;;;15.00;99.90;;;;;;5061530;28;20105;-74
2022/07/30 02:39:50;;;;;;;8.90;6.20;;;15.00;99.90;;;;;;5079591;28;20093;-75
2022/07/30 02:42:18;;;;;;;9.55;6.40;;;14.90;99.90;;;;;;5061643;28;20055;-74
2022/07/30 02:44:44;;;;;;;7.93;5.53;;;14.90;99.90;;;;;;5062742;28;20052;-74
2022/07/30 02:47:12;;;;;;;10.20;5.68;;;14.90;99.90;;;;;;5076033;28;20445;-74
2022/07/30 02:49:40;;;;;;;10.05;7.20;;;14.90;99.90;;;;;;5060099;28;20084;-74
2022/07/30 02:52:12;;;;;;;9.48;6.82;;;14.80;99.90;;;;;;5074908;28;20089;-74
2022/07/30 02:54:40;;;;;;;9.52;7.50;;;14.70;99.90;;;;;;5078916;28;20452;-74
2022/07/30 02:57:08;;;;;;;11.32;7.95;;;14.60;99.90;;;;;;5079015;28;20048;-74
2022/07/30 02:59:36;;;;;;;9.95;6.65;;;14.60;99.90;;;;;;5077941;28;20091;-76
2022/07/30 03:02:03;;;;;;;9.88;8.02;;;14.50;99.90;;;;;;5078744;28;20048;-75
2022/07/30 03:04:31;;;;;;;10.55;7.53;;;14.40;99.90;;;;;;5060852;28;20040;-74
2022/07/30 03:06:59;;;;;;;9.57;6.53;;;14.40;99.90;;;;;;5062184;28;20055;-74
2022/07/30 03:09:27;;;;;;;10.20;6.88;;;14.30;99.90;;;;;;5061480;28;20059;-74
2022/07/30 03:11:54;;;;;;;11.30;7.53;;;14.20;99.90;;;;;;5078527;28;20418;-73
2022/07/30 03:14:20;;;;;;;10.95;7.10;;;14.20;99.90;;;;;;5061690;28;20075;-74
2022/07/30 03:16:54;;;;;;;10.88;7.00;;;14.10;99.90;;;;;;5061379;28;20135;-73
2022/07/30 03:19:22;;;;;;;10.20;7.60;;;14.10;99.90;;;;;;5077658;28;20044;-74
2022/07/30 03:21:50;;;;;;;7.97;5.90;;;14.00;99.90;;;;;;5061066;28;20109;-75
2022/07/30 03:24:18;;;;;;;8.60;5.20;;;14.00;99.90;;;;;;5058222;28;20044;-74
2022/07/30 03:26:45;;;;;;;10.65;5.35;;;14.00;99.90;;;;;;5072158;28;20403;-74
2022/07/30 03:29:12;;;;;;;7.13;4.90;;;14.00;99.90;;;;;;5059539;28;20130;-74
2022/07/30 03:31:39;;;;;;;9.25;4.75;;;14.00;99.90;;;;;;5045537;28;20051;-73
2022/07/30 03:34:09;;;;;;;6.85;4.75;;;14.00;99.90;;;;;;5078415;28;20048;-74
2022/07/30 03:36:35;;;;;;;7.55;4.95;;;14.10;99.90;;;;;;5061798;28;20402;-75
2022/07/30 03:39:04;;;;;;;7.45;4.80;;;14.10;99.90;;;;;;5077242;28;20105;-74
2022/07/30 03:41:31;;;;;;;7.28;4.60;;;14.10;99.90;;;;;;5061710;28;20044;-74
2022/07/30 03:43:57;;;;;;;8.00;4.90;;;14.10;99.90;;;;;;5076927;28;20138;-75
2022/07/30 03:46:24;;;;;;;7.80;5.00;;;14.10;99.90;;;;;;5078185;28;20104;-74
2022/07/30 03:48:52;;;;;;;10.95;6.78;;;14.10;99.90;;;;;;5059679;28;20056;-75
2022/07/30 03:51:18;;;;;;;9.00;6.00;;;14.10;99.90;;;;;;5077896;28;20148;-75
2022/07/30 03:53:45;;;;;;;8.63;5.47;;;14.00;99.90;;;;;;5077512;28;20136;-76
2022/07/30 03:56:13;;;;;;;10.93;7.68;;;14.00;99.90;;;;;;5077540;28;20044;-74
2022/07/30 03:58:38;;;;;;;8.63;5.88;;;14.00;99.90;;;;;;5060975;28;20044;-74
2022/07/30 04:01:04;;;;;;;9.25;5.63;;;13.90;99.90;;;;;;5077228;28;20043;-75
2022/07/30 04:03:31;;;;;;;9.35;6.75;;;13.80;99.90;;;;;;5094710;28;20055;-75
2022/07/30 04:05:58;;;;;;;10.02;7.15;;;13.80;99.90;;;;;;5077749;28;20043;-74
2022/07/30 04:08:23;;;;;;;11.60;7.80;;;13.80;99.90;;;;;;5060717;28;20056;-75
2022/07/30 04:10:50;;;;;;;9.90;7.20;;;13.80;99.90;;;;;;5077751;28;20055;-74
2022/07/30 04:13:16;;;;;;;10.82;8.52;;;13.80;99.90;;;;;;5064004;28;20123;-75
2022/07/30 04:16:03;;;;;;;9.27;7.18;;;13.80;99.90;;;;;;5069857;28;20102;-75
2022/07/30 04:18:36;;;;;;;11.55;8.73;;;13.80;99.90;;;;;;5074984;28;20049;-75
2022/07/30 04:21:04;;;;;;;11.10;8.38;;;13.70;99.90;;;;;;5077305;28;20127;-74
2022/07/30 04:23:31;;;;;;;8.35;5.80;;;13.70;99.90;;;;;;5076075;28;20032;-75
2022/07/30 04:25:58;;;;;;;11.15;8.35;;;13.70;99.90;;;;;;5067551;28;20495;-74
2022/07/30 04:28:26;;;;;;;9.13;6.63;;;13.70;99.90;;;;;;5076632;28;20044;-75
2022/07/30 04:30:53;;;;;;;10.77;7.95;;;13.70;99.90;;;;;;5060668;28;20090;-74
2022/07/30 04:33:19;;;;;;;8.80;5.63;;;13.70;99.90;;;;;;5059541;28;20051;-75
2022/07/30 04:35:45;;;;;;;8.77;5.60;;;13.70;99.90;;;;;;5060113;28;20048;-75
2022/07/30 04:38:12;;;;;;;11.63;8.45;;;13.70;99.90;;;;;;5077092;28;20130;-74
2022/07/30 04:40:39;;;;;;;9.60;6.65;;;13.80;99.90;;;;;;5062184;28;20102;-74
2022/07/30 04:43:05;;;;;;;11.40;8.98;;;13.80;99.90;;;;;;5076379;28;20123;-76
2022/07/30 04:45:30;;;;;;;9.35;7.60;;;13.90;99.90;;;;;;5063790;28;20119;-74
2022/07/30 04:47:56;;;;;;;11.48;8.13;;;13.90;99.90;;;;;;5074782;28;20127;-74
2022/07/30 04:50:25;;;;;;;11.18;7.05;;;14.00;99.90;;;;;;5060286;28;20048;-74
2022/07/30 04:52:54;;;;;;;10.50;8.88;;;14.00;99.90;;;;;;5074739;28;20189;-74
2022/07/30 04:55:21;;;;;;;16.67;12.95;;;14.00;99.90;;;;;;5093494;28;20044;-74
2022/07/30 04:57:50;;;;;;;17.80;12.70;;;14.00;99.90;;;;;;5072857;28;20057;-75
2022/07/30 05:00:16;;;;;;;13.38;11.45;;;14.00;99.90;;;;;;5071587;28;20041;-74
2022/07/30 05:02:44;;;;;;;12.93;11.07;;;14.10;99.90;;;;;;5053494;28;20052;-75
2022/07/30 05:05:11;;;;;;;15.80;11.82;;;14.10;99.90;;;;;;5075321;28;20506;-75
2022/07/30 05:07:38;;;;;;;17.83;13.60;;;14.20;99.90;;;;;;5075981;28;20086;-75
2022/07/30 05:10:05;;;;;;;16.40;12.38;;;14.20;99.90;;;;;;5076452;28;20040;-74
2022/07/30 05:12:37;;;;;;;15.82;13.43;;;14.30;99.90;;;;;;5059159;28;20063;-74
2022/07/30 05:15:04;;;;;;;16.38;13.55;;;14.40;99.90;;;;;;5074587;28;20127;-75
2022/07/30 05:17:30;;;;;;;16.85;12.95;;;14.40;99.90;;;;;;5073372;28;20447;-76
2022/07/30 05:19:56;;;;;;;17.10;13.40;;;14.50;99.90;;;;;;5074988;28;20074;-75
2022/07/30 05:22:21;;;;;;;16.83;14.50;;;14.60;99.90;;;;;;5075856;28;20044;-75
2022/07/30 05:24:47;;;;;;;17.08;14.65;;;14.70;99.90;;;;;;5076166;28;20112;-74
2022/07/30 05:27:13;;;;;;;17.95;13.90;;;14.80;99.90;;;;;;5093695;28;20124;-75
2022/07/30 05:29:38;;;;;;;17.20;13.93;;;15.00;99.90;;;;;;5087922;28;20055;-74
2022/07/30 05:32:04;;;;;;;15.27;12.90;;;15.20;99.90;;;;;;5075917;28;20505;-74
2022/07/30 05:34:30;;;;;;;18.05;13.40;;;15.50;99.90;;;;;;5074614;28;20059;-74
2022/07/30 05:36:56;;;;;;;16.33;13.25;;;16.10;99.90;;;;;;5093706;28;20079;-75
2022/07/30 05:39:21;;;;;;;15.52;12.25;;;16.50;99.90;;;;;;5075346;28;20055;-74
2022/07/30 05:41:47;;;;;;;14.20;11.88;;;16.80;99.90;;;;;;5075385;28;20486;-74
2022/07/30 05:44:13;;;;;;;15.63;12.73;;;16.90;99.90;;;;;;5075199;28;20047;-73
2022/07/30 05:46:38;;;;;;;16.23;12.10;;;17.10;99.90;;;;;;5075872;28;20076;-74
2022/07/30 05:49:05;;;;;;;14.98;12.10;;;17.50;99.90;;;;;;5091718;28;20055;-73
2022/07/30 05:51:30;;;;;;;12.55;10.50;;;17.90;99.90;;;;;;5059214;28;20040;-73
2022/07/30 05:53:56;;;;;;;16.98;12.55;;;18.70;99.90;;;;;;5093310;28;20051;-73
2022/07/30 05:56:22;;;;;;;12.90;10.50;;;19.20;99.90;;;;;;5092810;28;20556;-77
2022/07/30 05:58:47;;;;;;;13.20;9.75;;;19.60;99.90;;;;;;5074162;28;20048;-72
2022/07/30 06:01:13;;;;;;;11.10;8.82;;;20.30;99.90;;;;;;5073404;28;20090;-72
2022/07/30 06:03:39;;;;;;;12.95;9.60;;;20.60;99.90;;;;;;5072005;28;20045;-74
2022/07/30 06:06:06;;;;;;;12.35;9.00;;;21.30;99.90;;;;;;5057759;28;20040;-74
2022/07/30 06:08:32;;;;;;;12.48;9.45;;;21.30;99.90;;;;;;5055492;28;20410;-73
2022/07/30 06:10:58;;;;;;;12.10;8.50;;;21.30;99.90;;;;;;5073185;28;20043;-73
2022/07/30 06:13:23;;;;;;;10.90;8.15;;;22.10;99.90;;;;;;5092505;28;20128;-73
2022/07/30 06:15:49;;;;;;;11.85;8.75;;;22.50;99.90;;;;;;5063174;28;20395;-75
2022/07/30 06:18:15;;;;;;;12.20;8.27;;;22.60;99.90;;;;;;5068979;28;20128;-73
2022/07/30 06:20:40;;;;;;;12.40;8.55;;;22.80;99.90;;;;;;5069844;28;20080;-75
2022/07/30 06:23:06;;;;;;;10.48;8.18;;;22.50;99.90;;;;;;5089245;28;20036;-76
2022/07/30 06:25:32;;;;;;;10.07;6.93;;;22.50;99.90;;;;;;5049414;28;20048;-75
2022/07/30 06:27:58;;;;;;;9.07;6.55;;;22.30;99.90;;;;;;5072703;28;20051;-73
2022/07/30 06:30:23;;;;;;;10.10;6.68;;;22.70;99.90;;;;;;5070965;28;20367;-75
2022/07/30 06:32:49;;;;;;;9.77;6.40;;;23.00;99.90;;;;;;5082304;28;20052;-72
2022/07/30 06:35:15;;;;;;;9.23;6.80;;;23.20;99.90;;;;;;5051313;28;20063;-72
2022/07/30 06:37:41;;;;;;;9.35;6.45;;;23.10;99.90;;;;;;5086206;28;20499;-78
2022/07/30 06:40:08;;;;;;;8.75;6.43;;;23.00;99.90;;;;;;5069690;28;20080;-74
2022/07/30 06:42:33;;;;;;;7.65;5.75;;;23.40;99.90;;;;;;5067260;28;20056;-74
2022/07/30 06:44:59;;;;;;;8.15;5.60;;;23.70;99.90;;;;;;5071149;28;20452;-74
2022/07/30 06:47:27;;;;;;;8.35;6.10;;;23.40;99.90;;;;;;5075773;28;20048;-73
2022/07/30 06:49:56;;;;;;;8.07;5.75;;;23.70;99.90;;;;;;5053101;28;20048;-74
2022/07/30 06:52:23;;;;;;;8.98;6.10;;;23.90;99.40;;;;;;5067676;28;20048;-74
2022/07/30 06:54:49;;;;;;;9.02;5.68;;;24.20;98.60;;;;;;5062729;28;20076;-73
2022/07/30 06:57:16;;;;;;;7.15;5.13;;;24.40;97.90;;;;;;5066670;28;20104;-74
2022/07/30 06:59:41;;;;;;;8.25;5.50;;;24.60;98.10;;;;;;5090865;28;20043;-74
2022/07/30 07:02:07;;;;;;;9.30;6.18;;;24.70;97.20;;;;;;5092170;28;20044;-75
2022/07/30 07:04:33;;;;;;;8.10;5.53;;;24.70;96.60;;;;;;5073339;28;20101;-73
2022/07/30 07:06:59;;;;;;;7.40;5.35;;;24.70;97.10;;;;;;5072711;28;20052;-73
2022/07/30 07:09:24;;;;;;;9.00;5.35;;;24.70;96.90;;;;;;5092273;28;20044;-74
2022/07/30 07:11:50;;;;;;;8.95;6.03;;;24.70;96.80;;;;;;5074473;28;20610;-75
2022/07/30 07:14:16;;;;;;;7.93;5.65;;;24.30;96.40;;;;;;5080053;28;20046;-74
2022/07/30 07:16:42;;;;;;;7.65;5.10;;;24.30;97.70;;;;;;5072527;28;20514;-76
2022/07/30 07:19:08;;;;;;;10.02;5.68;;;24.50;98.30;;;;;;5065854;28;20051;-77
2022/07/30 07:21:34;;;;;;;8.07;5.60;;;24.40;97.50;;;;;;5072770;28;20462;-75
2022/07/30 07:24:01;;;;;;;9.02;6.10;;;24.50;97.90;;;;;;5076335;28;20487;-77
2022/07/30 07:26:27;;;;;;;7.88;5.47;;;24.70;97.70;;;;;;5055092;28;20101;-78
2022/07/30 07:28:53;;;;;;;8.38;5.18;;;24.90;97.90;;;;;;5041576;28;20051;-75
2022/07/30 07:31:19;;;;;;;8.20;5.10;;;25.40;96.90;;;;;;5078354;28;20044;-74
2022/07/30 07:33:46;;;;;;;7.55;5.10;;;25.90;97.00;;;;;;5076899;28;20070;-73
2022/07/30 07:36:13;;;;;;;8.40;5.75;;;26.00;95.70;;;;;;5094974;28;20055;-75
2022/07/30 07:38:38;;;;;;;10.48;5.57;;;26.10;94.90;;;;;;5078222;28;20048;-76
2022/07/30 07:41:04;;;;;;;8.02;5.53;;;26.00;94.70;;;;;;5095575;28;20044;-77
2022/07/30 07:43:30;;;;;;;9.48;5.93;;;25.60;94.60;;;;;;5086511;28;20095;-73
2022/07/30 07:45:57;;;;;;;8.75;5.00;;;25.50;95.40;;;;;;5057537;28;20471;-74
2022/07/30 07:48:23;;;;;;;8.45;5.47;;;25.70;95.90;;;;;;5076678;28;20092;-75
2022/07/30 07:50:49;;;;;;;9.10;5.63;;;26.00;95.80;;;;;;5077542;28;20479;-75
2022/07/30 07:53:14;;;;;;;9.38;6.07;;;26.30;94.90;;;;;;5077497;28;20173;-75
2022/07/30 07:55:40;;;;;;;10.50;6.20;;;26.20;94.70;;;;;;5077775;28;20044;-81
2022/07/30 07:58:06;;;;;;;8.95;6.60;;;26.10;94.50;;;;;;5088926;28;20123;-74
2022/07/30 08:00:31;;;;;;;8.40;5.97;;;25.80;95.10;;;;;;5096025;28;20047;-75
2022/07/30 08:02:57;;;;;;;10.10;6.30;;;25.80;95.60;;;;;;5075792;28;20074;-75
2022/07/30 08:05:23;;;;;;;9.35;6.25;;;25.80;95.50;;;;;;5095598;28;20054;-72
2022/07/30 08:07:49;;;;;;;10.95;7.32;;;25.70;95.10;;;;;;5093113;28;20123;-75
2022/07/30 08:10:15;;;;;;;10.77;7.22;;;25.40;95.20;;;;;;5053945;28;20135;-73
2022/07/30 08:12:41;;;;;;;10.60;6.63;;;25.40;96.40;;;;;;5070331;28;20048;-75
2022/07/30 08:15:11;;;;;;;10.27;7.70;;;25.40;96.00;;;;;;5073615;28;20392;-74
2022/07/30 08:17:45;;;;;;;10.40;6.72;;;25.10;96.50;;;;;;5067951;28;20052;-80
2022/07/30 08:20:12;;;;;;;9.93;6.18;;;25.20;96.90;;;;;;5072155;28;20048;-73
2022/07/30 08:22:38;;;;;;;10.25;6.38;;;25.30;97.20;;;;;;5067688;28;20063;-74
2022/07/30 08:25:04;;;;;;;8.32;6.30;;;25.50;97.40;;;;;;5096471;28;20123;-73
2022/07/30 08:27:30;;;;;;;10.93;7.38;;;25.20;97.30;;;;;;5076812;28;20482;-73
2022/07/30 08:29:56;;;;;;;9.30;5.88;;;25.10;97.60;;;;;;5077382;28;20036;-71
2022/07/30 08:32:23;;;;;;;11.45;7.10;;;25.30;97.80;;;;;;5075939;28;20048;-77
2022/07/30 08:34:48;;;;;;;10.80;6.68;;;25.40;97.00;;;;;;5076335;28;20059;-74
2022/07/30 08:37:14;;;;;;;10.15;6.53;;;25.40;96.30;;;;;;5094333;28;20085;-77
2022/07/30 08:39:41;;;;;;;11.20;6.72;;;25.50;95.70;;;;;;5076298;28;20097;-76
2022/07/30 08:42:07;;;;;;;9.35;5.55;;;25.40;95.50;;;;;;5076769;28;20180;-74
2022/07/30 08:44:35;;;;;;;10.35;6.10;;;25.30;95.80;;;;;;5093105;28;20511;-75
2022/07/30 08:47:02;;;;;;;11.05;6.40;;;25.60;96.00;;;;;;5076473;28;20047;-78
2022/07/30 08:49:28;;;;;;;10.38;6.85;;;25.60;94.70;;;;;;5075215;28;20040;-77
2022/07/30 08:51:55;;;;;;;8.35;4.53;;;25.40;94.60;;;;;;5071441;28;20498;-77
2022/07/30 08:54:21;;;;;;;11.43;6.13;;;25.60;95.10;;;;;;5072251;28;20045;-74
2022/07/30 08:56:48;;;;;;;10.02;5.22;;;25.80;94.50;;;;;;5044445;28;20056;-76
2022/07/30 08:59:16;;;;;;;9.07;5.30;;;25.90;94.20;;;;;;5057463;28;20046;-78
2022/07/30 09:01:42;;;;;;;9.52;5.03;;;25.60;93.60;;;;;;5075145;28;20122;-74
2022/07/30 09:04:08;;;;;;;9.63;5.47;;;25.40;94.00;;;;;;5075087;28;20114;-76
2022/07/30 09:06:35;;;;;;;10.57;5.07;;;25.20;94.10;;;;;;5094065;28;20055;-77
2022/07/30 09:09:01;;;;;;;8.25;4.75;;;25.40;94.30;;;;;;5041595;28;20115;-75
2022/07/30 09:11:27;;;;;;;8.68;4.80;;;25.80;94.10;;;;;;5091525;28;20106;-77
2022/07/30 09:13:53;;;;;;;11.00;4.35;;;25.70;93.30;;;;;;5089193;28;20054;-75
2022/07/30 09:16:23;;;;;;;9.52;4.50;;;25.80;92.50;;;;;;5075215;28;20119;-76
2022/07/30 09:18:51;;;;;;;9.50;4.30;;;25.60;92.50;;;;;;5055416;28;20040;-79
2022/07/30 09:21:24;;;;;;;9.43;3.83;;;25.80;92.40;;;;;;5074670;28;20426;-75
2022/07/30 09:24:10;;;;;;;10.55;4.47;;;26.00;91.40;;;;;;5073347;28;20109;-77
2022/07/30 09:26:57;;;;;;;10.20;4.50;;;25.80;90.20;;;;;;5074098;28;20048;-76
2022/07/30 09:29:30;;;;;;;8.77;4.15;;;25.60;91.60;;;;;;5074379;28;20052;-77
2022/07/30 09:31:56;;;;;;;8.38;3.97;;;25.80;91.80;;;;;;5062682;28;20439;-76
2022/07/30 09:34:32;;;;;;;9.93;3.83;;;25.90;91.00;;;;;;5092366;28;20139;-79
2022/07/30 09:37:01;;;;;;;8.52;3.63;;;26.00;89.40;;;;;;5075983;28;20052;-75
2022/07/30 09:39:36;;;;;;;7.88;3.50;;;26.20;90.00;;;;;;5093187;28;20075;-76
2022/07/30 09:42:15;;;;;;;7.72;3.40;;;26.40;89.80;;;;;;5075307;28;20047;-77
2022/07/30 09:44:40;;;;;;;10.43;3.50;;;26.50;88.70;;;;;;5090788;28;20044;-77
2022/07/30 09:47:06;;;;;;;8.15;3.70;;;26.50;90.00;;;;;;5075259;28;20052;-76
2022/07/30 09:49:32;;;;;;;8.95;3.50;;;26.90;88.50;;;;;;5092273;28;20044;-74
2022/07/30 09:51:58;;;;;;;9.30;3.70;;;27.00;88.20;;;;;;5075662;28;20047;-77
2022/07/30 09:54:47;;;;;;;10.02;4.10;;;27.10;86.50;;;;;;5073852;28;20110;-77
2022/07/30 09:57:12;;;;;;;9.00;3.45;;;27.10;86.10;;;;;;5091215;28;20055;-75
2022/07/30 09:59:38;;;;;;;10.18;3.15;;;27.20;85.90;;;;;;5093162;28;20051;-75
2022/07/30 10:02:04;;;;;;;8.57;3.30;;;27.20;84.30;;;;;;5075330;28;20119;-76
2022/07/30 10:04:31;;;;;;;7.30;3.05;;;27.20;84.10;;;;;;5091975;28;20479;-77
2022/07/30 10:06:59;;;;;;;9.35;3.00;;;27.30;82.90;;;;;;5075406;28;20048;-75
2022/07/30 10:09:35;;;;;;;7.88;2.92;;;27.50;82.60;;;;;;5093307;28;20098;-76
2022/07/30 10:12:03;;;;;;;8.90;3.25;;;27.60;83.10;;;;;;5072296;28;20507;-78
2022/07/30 10:14:35;;;;;;;9.65;3.40;;;27.70;81.30;;;;;;5086508;28;20090;-77
2022/07/30 10:17:03;;;;;;;8.98;3.20;;;27.40;80.70;;;;;;5061612;28;20048;-74
2022/07/30 10:19:30;;;;;;;8.15;3.05;;;27.40;82.00;;;;;;5039078;28;20136;-78
2022/07/30 10:21:56;;;;;;;8.55;3.13;;;27.40;81.40;;;;;;5088154;28;20037;-78
2022/07/30 10:24:24;;;;;;;10.43;3.50;;;27.40;79.90;;;;;;5073147;28;20553;-77
2022/07/30 10:26:52;;;;;;;8.52;3.00;;;27.40;79.70;;;;;;5055737;28;20045;-77
2022/07/30 10:29:19;;;;;;;7.88;3.03;;;27.60;79.10;;;;;;5087313;28;20048;-75
2022/07/30 10:31:46;;;;;;;8.05;2.72;;;27.80;78.00;;;;;;5092704;28;20052;-77
2022/07/30 10:34:13;;;;;;;8.13;3.08;;;27.90;78.20;;;;;;5087897;28;20048;-77
2022/07/30 10:37:00;;;;;;;7.85;2.72;;;28.00;75.80;;;;;;5063965;28;20466;-79
2022/07/30 10:39:36;;;;;;;8.27;3.22;;;28.10;75.00;;;;;;5070927;28;20043;-78
2022/07/30 10:42:54;;;;;;;7.72;2.83;;;27.90;72.50;;;;;;5091976;28;20048;-75
2022/07/30 10:45:46;;;;;;;8.38;2.90;;;27.80;73.00;;;;;;5091739;28;20083;-74
2022/07/30 10:48:12;;;;;;;8.55;2.90;;;28.00;74.20;;;;;;5089631;28;20043;-76
2022/07/30 10:50:52;;;;;;;9.38;2.75;;;27.70;74.10;;;;;;5054901;28;20048;-75
2022/07/30 10:53:37;;;;;;;8.45;2.80;;;27.60;73.70;;;;;;5070488;28;20525;-78
2022/07/30 10:56:17;;;;;;;7.28;2.63;;;27.70;73.80;;;;;;5052742;28;20101;-72
2022/07/30 10:59:07;;;;;;;8.43;2.75;;;27.90;73.00;;;;;;5080754;28;20048;-78
2022/07/30 11:01:48;;;;;;;8.93;2.67;;;28.10;72.70;;;;;;5076305;28;20048;-76
2022/07/30 11:04:21;;;;;;;8.93;2.67;;;28.40;67.80;;;;;;5074317;28;20143;-80
2022/07/30 11:06:48;;;;;;;9.35;2.70;;;28.50;68.20;;;;;;5073753;28;20395;-75
2022/07/30 11:09:40;;;;;;;8.80;2.40;;;28.50;69.20;;;;;;5069939;28;20044;-80
2022/07/30 11:12:06;;;;;;;6.22;2.35;;;28.50;67.80;;;;;;5086742;28;20044;-81
2022/07/30 11:15:02;;;;;;;7.85;2.30;;;28.40;67.40;;;;;;5099392;28;20514;-77
2022/07/30 11:17:56;;;;;;;7.97;2.55;;;27.80;65.60;;;;;;5064902;28;20056;-77
2022/07/30 11:20:22;;;;;;;7.15;2.42;;;27.40;67.30;;;;;;5077916;28;20051;-79
2022/07/30 11:22:48;;;;;;;7.93;2.22;;;27.40;68.70;;;;;;5047272;28;20379;-76
2022/07/30 11:25:26;;;;;;;6.75;2.40;;;27.60;67.80;;;;;;5059371;28;20097;-77
2022/07/30 11:27:52;;;;;;;6.88;2.38;;;27.20;66.50;;;;;;5076440;28;20048;-77
2022/07/30 11:30:21;;;;;;;6.95;2.30;;;26.80;67.30;;;;;;5055035;28;20487;-77
2022/07/30 11:32:48;;;;;;;6.05;2.40;;;26.60;68.20;;;;;;5076535;28;20052;-79
2022/07/30 11:35:23;;;;;;;7.95;2.47;;;26.80;68.70;;;;;;5076262;28;20063;-78
2022/07/30 11:38:01;;;;;;;8.98;2.45;;;27.10;69.80;;;;;;5075211;28;20091;-75
2022/07/30 11:40:32;;;;;;;8.57;2.47;;;27.40;69.00;;;;;;5072341;28;20060;-77
2022/07/30 11:43:15;;;;;;;8.25;2.40;;;27.50;67.30;;;;;;5074798;28;20122;-79
2022/07/30 11:45:42;;;;;;;6.13;2.25;;;27.20;66.80;;;;;;5074791;28;20109;-77
2022/07/30 11:48:12;;;;;;;6.03;2.25;;;27.00;64.70;;;;;;5069626;28;20048;-78
2022/07/30 11:50:40;;;;;;;6.85;2.30;;;26.90;65.80;;;;;;5074200;28;20054;-74
2022/07/30 11:53:15;;;;;;;5.65;2.20;;;27.10;67.60;;;;;;5091559;28;20036;-76
2022/07/30 11:55:52;;;;;;;6.07;2.00;;;27.30;65.90;;;;;;5077873;28;20131;-81
2022/07/30 11:58:28;;;;;;;7.55;2.10;;;27.60;63.20;;;;;;5067210;28;20072;-79
2022/07/30 12:00:56;;;;;;;7.88;2.05;;;27.80;63.80;;;;;;5072516;28;20127;-78
2022/07/30 12:03:25;;;;;;;7.60;2.17;;;27.80;62.30;;;;;;5063871;28;20399;-78
2022/07/30 12:05:51;;;;;;;7.57;2.10;;;27.80;62.90;;;;;;5082985;28;20067;-76
2022/07/30 12:08:17;;;;;;;7.72;2.33;;;28.00;63.90;;;;;;5071747;28;20110;-79
2022/07/30 12:10:54;;;;;;;6.35;2.10;;;28.10;63.80;;;;;;5060810;28;20059;-76
2022/07/30 12:13:20;;;;;;;7.43;1.95;;;28.20;63.60;;;;;;5072688;28;20559;-77
2022/07/30 12:15:47;;;;;;;7.03;2.20;;;28.30;63.20;;;;;;5068959;28;20130;-78
2022/07/30 12:18:30;;;;;;;6.55;2.00;;;28.50;61.90;;;;;;5076167;28;20059;-77
2022/07/30 12:21:01;;;;;;;8.18;2.00;;;28.50;59.40;;;;;;5066728;28;20110;-78
2022/07/30 12:23:28;;;;;;;5.10;1.90;;;28.60;59.20;;;;;;5093694;28;20083;-75
2022/07/30 12:25:54;;;;;;;5.70;2.08;;;28.50;57.60;;;;;;5060733;28;20097;-75
2022/07/30 12:28:23;;;;;;;6.30;2.17;;;28.50;58.70;;;;;;5093854;28;20048;-78
2022/07/30 12:30:50;;;;;;;6.60;2.00;;;28.50;58.50;;;;;;5077282;28;20052;-76
2022/07/30 12:33:16;;;;;;;6.90;2.25;;;28.50;59.10;;;;;;5076426;28;20051;-78
2022/07/30 12:35:47;;;;;;;5.95;1.90;;;28.30;56.60;;;;;;5094604;28;20056;-77
2022/07/30 12:38:14;;;;;;;6.53;2.08;;;28.10;57.10;;;;;;5094722;28;20134;-77
2022/07/30 12:41:03;;;;;;;10.60;2.53;;;28.10;58.50;;;;;;5076555;28;20058;-78
2022/07/30 12:43:45;;;;;;;7.10;2.30;;;28.10;58.40;;;;;;5094675;28;20047;-80
2022/07/30 12:46:26;;;;;;;8.80;2.65;;;27.90;59.30;;;;;;5093946;28;20112;-78
2022/07/30 12:48:54;;;;;;;6.32;2.13;;;27.90;58.70;;;;;;5075494;28;20044;-77
2022/07/30 12:51:23;;;;;;;6.93;2.03;;;27.90;59.10;;;;;;5093471;28;20051;-77